createdAt,value
2017-10-17T00:00:53.725Z,100757.30
2017-10-17T00:03:22.946Z,100759.07
2017-10-17T00:05:52.159Z,100764.50
2017-10-17T00:08:22.872Z,100752.08
2017-10-17T00:10:52.107Z,100755.73
2017-10-17T00:13:21.302Z,100752.74
2017-10-17T00:15:51.284Z,100754.67
2017-10-17T00:18:20.971Z,100749.88
2017-10-17T00:20:50.176Z,100750.02
2017-10-17T00:23:19.431Z,100747.45
2017-10-17T00:25:49.415Z,100749.77
2017-10-17T00:28:18.625Z,100755.81
2017-10-17T00:30:50.152Z,100747.73
2017-10-17T00:33:21.128Z,100748.11
2017-10-17T00:35:56.516Z,100749.42
2017-10-17T00:38:26.502Z,100748.98
2017-10-17T00:40:55.726Z,100755.68
2017-10-17T00:43:25.687Z,100756.45
2017-10-17T00:45:55.832Z,100749.34
2017-10-17T00:48:25.068Z,100751.98
2017-10-17T00:50:54.297Z,100751.52
2017-10-17T00:53:24.363Z,100744.43
2017-10-17T00:55:53.659Z,100746.86
2017-10-17T00:58:26.504Z,100746.98
2017-10-17T01:00:55.809Z,100753.44
2017-10-17T01:03:27.975Z,100746.73
2017-10-17T01:05:57.279Z,100748.79
2017-10-17T01:08:27.232Z,100748.87
2017-10-17T01:10:56.477Z,100747.02
2017-10-17T01:13:26.472Z,100738.83
2017-10-17T01:15:55.782Z,100731.77
2017-10-17T01:18:25.015Z,100743.99
2017-10-17T01:20:56.825Z,100733.14
2017-10-17T01:37:01.700Z,100747.84
2017-10-17T01:39:33.772Z,100751.52
2017-10-17T01:42:03.052Z,100743.97
2017-10-17T01:44:35.564Z,100745.28
2017-10-17T01:47:07.727Z,100737.42
2017-10-17T01:49:55.203Z,100740.20
2017-10-17T01:52:27.819Z,100736.13
2017-10-17T01:55:01.860Z,100733.34
2017-10-17T01:57:34.733Z,100740.25
2017-10-17T02:00:03.922Z,100739.27
2017-10-17T02:02:33.224Z,100736.49
2017-10-17T02:05:02.486Z,100734.08
2017-10-17T02:07:32.479Z,100739.79
2017-10-17T02:10:08.204Z,100743.95
2017-10-17T02:12:37.472Z,100742.78
2017-10-17T02:15:06.715Z,100745.11
2017-10-17T02:17:36.746Z,100745.94
2017-10-17T02:20:06.039Z,100747.59
2017-10-17T02:22:36.705Z,100743.13
2017-10-17T02:38:29.136Z,100743.02
2017-10-17T02:41:02.218Z,100747.45
2017-10-17T02:43:38.451Z,100747.84
2017-10-17T02:46:07.648Z,100748.42
2017-10-17T02:48:48.415Z,100749.83
2017-10-17T02:51:19.157Z,100750.44
2017-10-17T02:53:48.516Z,100752.19
2017-10-17T02:56:17.748Z,100756.56
2017-10-17T02:58:47.034Z,100758.36
2017-10-17T03:01:16.980Z,100753.41
2017-10-17T03:03:49.718Z,100759.23
2017-10-17T03:06:18.976Z,100757.72
2017-10-17T03:08:48.931Z,100760.59
2017-10-17T03:11:18.226Z,100770.07
2017-10-17T03:13:49.003Z,100762.77
2017-10-17T03:16:19.090Z,100765.83
2017-10-17T03:18:49.731Z,100771.33
2017-10-17T03:21:23.462Z,100769.23
2017-10-17T03:24:13.647Z,100768.00
2017-10-17T03:26:43.648Z,100775.85
2017-10-17T03:29:12.872Z,100775.52
2017-10-17T03:31:42.121Z,100777.52
2017-10-17T03:34:25.832Z,100773.90
2017-10-17T03:50:44.119Z,100781.94
2017-10-17T04:07:06.227Z,100808.20
2017-10-17T04:09:39.983Z,100805.78
2017-10-17T04:12:09.203Z,100806.77
2017-10-17T04:14:55.205Z,100805.49
2017-10-17T04:18:01.500Z,100805.45
2017-10-17T04:20:45.289Z,100805.35
2017-10-17T04:37:02.239Z,100813.59
2017-10-17T04:39:32.276Z,100818.72
2017-10-17T04:42:28.225Z,100817.89
2017-10-17T04:59:08.139Z,100833.21
2017-10-17T05:01:37.356Z,100829.13
2017-10-17T05:04:13.069Z,100831.30
2017-10-17T05:06:43.060Z,100830.69
2017-10-17T05:09:23.707Z,100831.95
2017-10-17T05:11:52.899Z,100833.98
2017-10-17T05:14:43.212Z,100840.60
2017-10-17T05:17:18.599Z,100834.31
2017-10-17T05:19:50.375Z,100832.62
2017-10-17T05:22:24.170Z,100839.08
2017-10-17T05:25:00.774Z,100839.32
2017-10-17T05:41:32.434Z,100851.55
2017-10-17T05:57:41.762Z,100861.49
2017-10-17T06:00:11.224Z,100868.00
2017-10-17T06:02:40.824Z,100869.33
2017-10-17T06:05:10.065Z,100879.06
2017-10-17T06:07:39.275Z,100876.67
2017-10-17T06:10:09.281Z,100877.91
2017-10-17T06:12:38.491Z,100883.05
2017-10-17T06:15:08.504Z,100877.04
2017-10-17T06:17:38.531Z,100874.52
2017-10-17T06:20:08.529Z,100870.98
2017-10-17T06:22:37.752Z,100882.30
2017-10-17T06:25:07.750Z,100885.17
2017-10-17T06:27:37.749Z,100879.03
2017-10-17T06:30:08.502Z,100884.91
2017-10-17T06:32:38.490Z,100891.63
2017-10-17T06:35:07.759Z,100885.97
2017-10-17T06:37:36.979Z,100894.81
2017-10-17T06:40:06.197Z,100898.14
2017-10-17T06:42:35.455Z,100902.17
2017-10-17T06:45:04.651Z,100905.00
2017-10-17T06:47:33.855Z,100905.00
2017-10-17T06:50:03.111Z,100911.85
2017-10-17T06:52:33.121Z,100896.50
2017-10-17T06:55:02.396Z,100900.96
2017-10-17T06:57:31.739Z,100907.13
2017-10-17T07:00:01.009Z,100906.77
2017-10-17T07:02:30.254Z,100911.76
2017-10-17T07:04:59.467Z,100910.16
2017-10-17T07:07:28.700Z,100911.06
2017-10-17T07:09:58.011Z,100910.31
2017-10-17T07:12:28.863Z,100908.66
2017-10-17T07:14:58.827Z,100905.80
2017-10-17T07:17:28.069Z,100912.42
2017-10-17T07:19:58.039Z,100913.45
2017-10-17T07:22:27.274Z,100913.84
2017-10-17T07:24:57.256Z,100916.75
2017-10-17T07:27:26.479Z,100917.42
2017-10-17T07:29:56.093Z,100919.02
2017-10-17T07:32:26.522Z,100903.12
2017-10-17T07:34:55.795Z,100914.00
2017-10-17T07:37:25.004Z,100911.47
2017-10-17T07:39:54.249Z,100911.96
2017-10-17T07:42:23.491Z,100908.77
2017-10-17T07:44:52.699Z,100910.00
2017-10-17T07:47:21.982Z,100908.70
2017-10-17T07:49:51.387Z,100905.34
2017-10-17T07:52:20.648Z,100902.38
2017-10-17T07:54:49.863Z,100904.22
2017-10-17T07:57:19.095Z,100902.75
2017-10-17T07:59:48.319Z,100897.55
2017-10-17T08:02:17.548Z,100902.78
2017-10-17T08:04:46.775Z,100895.49
2017-10-17T08:07:15.996Z,100901.94
2017-10-17T08:09:45.993Z,100901.87
2017-10-17T08:12:15.244Z,100896.53
2017-10-17T08:14:44.460Z,100893.47
2017-10-17T08:17:13.768Z,100895.15
2017-10-17T08:19:42.979Z,100890.12
2017-10-17T08:22:12.255Z,100888.42
2017-10-17T08:24:41.466Z,100884.13
2017-10-17T08:27:10.788Z,100883.95
2017-10-17T08:29:40.023Z,100883.26
2017-10-17T08:32:09.227Z,100884.95
2017-10-17T08:34:38.462Z,100879.39
2017-10-17T08:37:07.663Z,100882.47
2017-10-17T08:39:37.656Z,100878.27
2017-10-17T08:42:06.907Z,100879.11
2017-10-17T08:44:36.999Z,100874.62
2017-10-17T08:47:06.220Z,100875.59
2017-10-17T08:49:36.228Z,100874.64
2017-10-17T08:52:06.203Z,100880.87
2017-10-17T08:54:35.448Z,100873.34
2017-10-17T08:57:05.428Z,100879.63
2017-10-17T08:59:34.635Z,100879.02
2017-10-17T09:02:05.378Z,100880.42
2017-10-17T09:04:34.587Z,100876.70
2017-10-17T09:07:04.724Z,100870.29
2017-10-17T09:09:34.706Z,100870.05
2017-10-17T09:12:03.947Z,100873.73
2017-10-17T09:14:33.886Z,100877.67
2017-10-17T09:17:03.148Z,100882.02
2017-10-17T09:19:33.113Z,100880.56
2017-10-17T09:22:02.332Z,100880.53
2017-10-17T09:24:31.550Z,100881.93
2017-10-17T09:27:01.561Z,100885.30
2017-10-17T09:29:30.788Z,100879.76
2017-10-17T09:32:00.020Z,100870.74
2017-10-17T09:34:29.265Z,100864.45
2017-10-17T09:36:59.348Z,100860.23
2017-10-17T09:39:28.576Z,100858.64
2017-10-17T09:41:58.548Z,100864.31
2017-10-17T09:44:27.792Z,100860.86
2017-10-17T09:46:57.772Z,100859.03
2017-10-17T09:49:26.996Z,100862.09
2017-10-17T09:51:56.987Z,100858.43
2017-10-17T09:54:26.215Z,100862.02
2017-10-17T09:56:56.212Z,100860.91
2017-10-17T09:59:25.428Z,100859.96
2017-10-17T10:01:55.443Z,100864.70
2017-10-17T10:04:25.407Z,100860.24
2017-10-17T10:06:54.651Z,100861.53
2017-10-17T10:09:23.959Z,100858.50
2017-10-17T10:11:53.473Z,100856.48
2017-10-17T10:14:22.696Z,100861.13
2017-10-17T10:16:51.927Z,100857.75
2017-10-17T10:19:21.158Z,100855.50
2017-10-17T10:21:51.136Z,100853.23
2017-10-17T10:24:20.380Z,100850.13
2017-10-17T10:26:49.588Z,100855.64
2017-10-17T10:29:18.828Z,100850.06
2017-10-17T10:31:48.032Z,100851.10
2017-10-17T10:34:17.259Z,100850.09
2017-10-17T10:36:47.330Z,100851.77
2017-10-17T10:39:16.551Z,100848.84
2017-10-17T10:41:46.059Z,100853.44
2017-10-17T10:44:15.281Z,100850.40
2017-10-17T10:46:45.275Z,100847.08
2017-10-17T10:49:15.257Z,100849.23
2017-10-17T10:51:44.489Z,100849.09
2017-10-17T10:54:13.683Z,100845.59
2017-10-17T10:56:42.916Z,100842.38
2017-10-17T10:59:12.137Z,100842.69
2017-10-17T11:01:41.363Z,100836.72
2017-10-17T11:04:10.568Z,100829.73
2017-10-17T11:06:39.799Z,100833.97
2017-10-17T11:09:09.048Z,100830.84
2017-10-17T11:11:38.266Z,100825.54
2017-10-17T11:14:07.491Z,100820.63
2017-10-17T11:16:37.494Z,100824.17
2017-10-17T11:19:06.733Z,100818.19
2017-10-17T11:21:35.940Z,100813.86
2017-10-17T11:24:05.194Z,100812.34
2017-10-17T11:26:35.167Z,100808.63
2017-10-17T11:29:04.407Z,100808.23
2017-10-17T11:31:34.379Z,100806.92
2017-10-17T11:34:03.617Z,100814.25
2017-10-17T11:36:32.851Z,100810.95
2017-10-17T11:39:02.858Z,100799.94
2017-10-17T11:55:09.671Z,100785.50
2017-10-17T11:57:40.396Z,100783.94
2017-10-17T12:00:09.665Z,100780.47
2017-10-17T12:02:38.892Z,100773.08
2017-10-17T12:05:08.132Z,100772.94
2017-10-17T12:07:38.199Z,100763.35
2017-10-17T12:10:07.658Z,100763.03
2017-10-17T12:12:37.783Z,100762.16
2017-10-17T12:15:07.028Z,100750.36
2017-10-17T12:17:36.273Z,100749.69
2017-10-17T12:20:05.505Z,100748.70
2017-10-17T12:22:34.872Z,100751.39
2017-10-17T12:25:04.118Z,100759.16
2017-10-17T12:27:33.375Z,100750.89
2017-10-17T12:30:02.716Z,100746.63
2017-10-17T12:32:31.963Z,100743.39
2017-10-17T12:35:01.923Z,100744.20
2017-10-17T12:37:31.290Z,100741.52
2017-10-17T12:40:00.518Z,100733.06
2017-10-17T12:42:29.753Z,100725.37
2017-10-17T12:44:58.973Z,100722.84
2017-10-17T12:47:28.178Z,100726.66
2017-10-17T12:49:57.407Z,100717.79
2017-10-17T12:52:26.638Z,100720.42
2017-10-17T12:54:55.864Z,100720.55
2017-10-17T12:57:25.887Z,100714.63
2017-10-17T12:59:56.009Z,100713.25
2017-10-17T13:04:48.063Z,100710.24
2017-10-17T13:07:17.658Z,100711.87
2017-10-17T13:09:47.625Z,100705.73
2017-10-17T13:12:20.038Z,100710.19
2017-10-17T13:14:50.055Z,100703.05
2017-10-17T13:17:20.072Z,100693.07
2017-10-17T13:19:50.091Z,100689.94
2017-10-17T13:22:19.336Z,100682.95
2017-10-17T13:24:48.622Z,100681.75
2017-10-17T13:27:17.847Z,100689.75
2017-10-17T13:29:47.219Z,100684.69
2017-10-17T13:32:16.537Z,100689.44
2017-10-17T13:34:45.828Z,100681.84
2017-10-17T13:37:15.101Z,100673.44
2017-10-17T13:39:44.438Z,100678.63
2017-10-17T13:42:14.267Z,100675.87
2017-10-17T13:44:43.523Z,100671.07
2017-10-17T13:47:12.751Z,100672.35
2017-10-17T13:49:42.129Z,100669.25
2017-10-17T13:52:11.383Z,100666.22
2017-10-17T13:54:41.368Z,100662.30
2017-10-17T13:57:10.587Z,100662.95
2017-10-17T13:59:39.863Z,100663.98
2017-10-17T14:02:09.277Z,100652.62
2017-10-17T14:04:38.490Z,100640.15
2017-10-17T14:07:08.498Z,100646.13
2017-10-17T14:09:38.535Z,100641.65
2017-10-17T14:12:08.540Z,100637.59
2017-10-17T14:14:38.552Z,100641.97
2017-10-17T14:17:08.568Z,100638.62
2017-10-17T14:19:38.703Z,100639.21
2017-10-17T14:22:08.672Z,100634.28
2017-10-17T14:24:37.933Z,100630.27
2017-10-17T14:27:07.155Z,100635.84
2017-10-17T14:29:36.397Z,100634.64
2017-10-17T14:32:06.471Z,100634.80
2017-10-17T14:34:35.708Z,100626.37
2017-10-17T14:37:04.919Z,100633.90
2017-10-17T14:39:35.021Z,100632.53
2017-10-17T14:42:04.243Z,100632.41
2017-10-17T14:44:34.215Z,100626.09
2017-10-17T14:47:03.442Z,100624.71
2017-10-17T14:49:33.452Z,100619.59
2017-10-17T14:52:02.701Z,100615.08
2017-10-17T14:54:31.915Z,100617.31
2017-10-17T14:57:01.255Z,100615.16
2017-10-17T14:59:31.252Z,100615.94
2017-10-17T15:02:00.511Z,100612.58
2017-10-17T15:04:29.723Z,100612.78
2017-10-17T15:06:58.957Z,100609.63
2017-10-17T15:09:29.667Z,100609.02
2017-10-17T15:11:58.917Z,100610.94
2017-10-17T15:14:28.141Z,100610.33
2017-10-17T15:16:57.367Z,100612.02
2017-10-17T15:19:26.728Z,100607.41
2017-10-17T15:21:55.980Z,100603.62
2017-10-17T15:24:25.220Z,100598.75
2017-10-17T15:26:55.228Z,100600.44
2017-10-17T15:29:24.485Z,100591.56
2017-10-17T15:31:53.751Z,100592.16
2017-10-17T15:34:22.986Z,100592.34
2017-10-17T15:36:52.203Z,100584.61
2017-10-17T15:39:22.208Z,100581.05
2017-10-17T15:41:51.710Z,100574.14
2017-10-17T15:44:21.733Z,100577.62
2017-10-17T15:46:51.740Z,100576.02
2017-10-17T15:51:57.099Z,100578.22
2017-10-17T15:54:26.328Z,100573.22
2017-10-17T15:56:55.607Z,100574.09
2017-10-17T15:59:25.672Z,100568.63
2017-10-17T16:01:54.927Z,100567.41
2017-10-17T16:04:24.935Z,100572.68
2017-10-17T16:06:54.961Z,100567.78
2017-10-17T16:09:24.984Z,100572.56
2017-10-17T16:11:54.192Z,100570.41
2017-10-17T16:14:23.439Z,100573.05
2017-10-17T16:16:52.748Z,100564.56
2017-10-17T16:19:22.020Z,100561.69
2017-10-17T16:21:51.244Z,100563.41
2017-10-17T16:24:20.496Z,100560.61
2017-10-17T16:26:49.717Z,100562.89
2017-10-17T16:29:18.940Z,100562.23
2017-10-17T16:31:48.160Z,100556.91
2017-10-17T16:34:18.172Z,100564.74
2017-10-17T16:36:48.177Z,100566.19
2017-10-17T16:39:17.445Z,100567.73
2017-10-17T16:41:46.699Z,100567.03
2017-10-17T16:44:15.933Z,100567.14
2017-10-17T16:46:45.160Z,100560.89
2017-10-17T16:49:14.547Z,100560.91
2017-10-17T16:51:43.791Z,100563.70
2017-10-17T16:54:13.781Z,100562.36
2017-10-17T16:56:43.069Z,100566.33
2017-10-17T16:59:12.419Z,100570.05
2017-10-17T17:01:41.689Z,100582.58
2017-10-17T17:04:10.922Z,100580.89
2017-10-17T17:06:40.145Z,100574.97
2017-10-17T17:09:09.432Z,100571.55
2017-10-17T17:11:38.690Z,100576.67
2017-10-17T17:14:08.737Z,100573.86
2017-10-17T17:16:37.964Z,100572.03
2017-10-17T17:19:07.225Z,100572.27
2017-10-17T17:21:36.463Z,100571.46
2017-10-17T17:24:05.729Z,100570.54
2017-10-17T17:26:35.026Z,100572.91
2017-10-17T17:29:04.277Z,100573.47
2017-10-17T17:31:33.511Z,100573.00
2017-10-17T17:34:03.533Z,100570.28
2017-10-17T17:36:32.761Z,100575.78
2017-10-17T17:39:02.037Z,100577.41
2017-10-17T17:41:31.268Z,100575.95
2017-10-17T17:44:00.503Z,100580.03
2017-10-17T17:46:29.767Z,100579.20
2017-10-17T17:48:59.065Z,100582.78
2017-10-17T17:51:28.332Z,100578.09
2017-10-17T17:53:57.636Z,100580.13
2017-10-17T17:56:26.884Z,100580.52
2017-10-17T17:58:56.119Z,100574.45
2017-10-17T18:01:25.574Z,100580.70
2017-10-17T18:03:54.828Z,100581.39
2017-10-17T18:06:24.063Z,100577.03
2017-10-17T18:08:53.369Z,100581.50
2017-10-17T18:11:22.595Z,100577.10
2017-10-17T18:13:52.592Z,100585.73
2017-10-17T18:16:21.840Z,100581.76
2017-10-17T18:18:51.088Z,100580.78
2017-10-17T18:21:20.297Z,100578.66
2017-10-17T18:23:50.344Z,100580.06
2017-10-17T18:26:19.629Z,100580.06
2017-10-17T18:28:48.878Z,100575.69
2017-10-17T18:31:18.121Z,100568.11
2017-10-17T18:33:48.146Z,100563.59
2017-10-17T18:36:17.490Z,100562.61
2017-10-17T18:38:46.738Z,100557.77
2017-10-17T18:41:16.135Z,100559.81
2017-10-17T18:43:46.156Z,100555.23
2017-10-17T18:46:16.159Z,100548.70
2017-10-17T18:48:46.140Z,100547.69
2017-10-17T18:51:15.381Z,100537.98
2017-10-17T18:53:45.407Z,100532.14
2017-10-17T18:56:14.672Z,100534.95
2017-10-17T18:58:43.917Z,100535.03
2017-10-17T19:01:13.148Z,100536.76
2017-10-17T19:03:42.397Z,100526.77
2017-10-17T19:06:12.414Z,100531.05
2017-10-17T19:08:41.667Z,100525.75
2017-10-17T19:11:10.920Z,100524.12
2017-10-17T19:13:40.131Z,100510.62
2017-10-17T19:16:09.401Z,100505.14
2017-10-17T19:18:39.388Z,100504.98
2017-10-17T19:21:08.668Z,100512.45
2017-10-17T19:23:37.952Z,100503.73
2017-10-17T19:26:07.198Z,100505.50
2017-10-17T19:28:37.328Z,100499.77
2017-10-17T19:31:07.355Z,100509.08
2017-10-17T19:33:37.375Z,100503.17
2017-10-17T19:36:06.634Z,100511.60
2017-10-17T19:38:35.910Z,100509.15
2017-10-17T19:41:05.135Z,100498.89
2017-10-17T19:43:34.404Z,100499.24
2017-10-17T19:46:03.643Z,100504.86
2017-10-17T19:48:33.702Z,100487.69
2017-10-17T19:51:02.937Z,100489.95
2017-10-17T19:53:32.166Z,100494.89
2017-10-17T19:56:02.201Z,100501.17
2017-10-17T19:58:31.464Z,100502.98
2017-10-17T20:01:01.786Z,100504.81
2017-10-17T20:03:31.010Z,100499.09
2017-10-17T20:06:00.293Z,100493.11
2017-10-17T20:08:30.305Z,100492.95
2017-10-17T20:10:59.580Z,100496.66
2017-10-17T20:13:28.820Z,100495.69
2017-10-17T20:15:58.118Z,100494.45
2017-10-17T20:18:28.128Z,100484.34
2017-10-17T20:20:58.200Z,100484.79
2017-10-17T20:23:27.628Z,100490.56
2017-10-17T20:25:56.951Z,100485.44
2017-10-17T20:28:26.172Z,100488.00
2017-10-17T20:30:55.431Z,100482.14
2017-10-17T20:33:25.437Z,100485.95
2017-10-17T20:35:54.677Z,100491.17
2017-10-17T20:38:23.925Z,100495.09
2017-10-17T20:40:53.166Z,100491.17
2017-10-17T20:43:22.411Z,100487.30
2017-10-17T20:45:52.677Z,100487.39
2017-10-17T20:48:22.698Z,100488.36
2017-10-17T20:50:52.713Z,100489.81
2017-10-17T20:53:22.060Z,100486.72
2017-10-17T20:55:51.307Z,100485.70
2017-10-17T20:58:21.304Z,100483.81
2017-10-17T21:00:50.557Z,100478.00
2017-10-17T21:03:20.002Z,100477.20
2017-10-17T21:05:49.255Z,100474.25
2017-10-17T21:08:18.493Z,100471.39
2017-10-17T21:10:47.767Z,100458.84
2017-10-17T21:13:17.008Z,100458.41
2017-10-17T21:15:47.022Z,100460.27
2017-10-17T21:18:17.040Z,100454.00
2017-10-17T21:20:46.284Z,100445.56
2017-10-17T21:23:15.511Z,100449.62
2017-10-17T21:25:44.744Z,100453.95
2017-10-17T21:28:14.723Z,100451.55
2017-10-17T21:30:46.404Z,100453.31
2017-10-17T21:33:16.440Z,100452.98
2017-10-17T21:35:46.436Z,100446.17
2017-10-17T21:51:21.500Z,100412.77
2017-10-17T21:53:50.723Z,100420.41
2017-10-17T21:56:19.917Z,100408.10
2017-10-17T21:58:49.166Z,100403.77
2017-10-17T22:01:18.401Z,100411.05
2017-10-17T22:03:47.657Z,100402.94
2017-10-17T22:06:19.337Z,100393.66
2017-10-17T22:08:51.517Z,100400.66
2017-10-17T22:11:21.580Z,100397.63
2017-10-17T22:13:50.828Z,100395.45
2017-10-17T22:16:20.075Z,100393.84
2017-10-17T22:18:49.319Z,100394.69
2017-10-17T22:21:18.567Z,100394.33
2017-10-17T22:23:47.817Z,100396.89
2017-10-17T22:26:17.035Z,100390.92
2017-10-17T22:28:46.244Z,100389.11
2017-10-17T22:31:15.477Z,100394.25
2017-10-17T22:33:45.537Z,100392.58
2017-10-17T22:36:14.747Z,100382.42
2017-10-17T22:38:43.956Z,100382.46
2017-10-17T22:41:13.171Z,100383.83
2017-10-17T22:43:42.430Z,100383.03
2017-10-17T22:46:11.703Z,100375.75
2017-10-17T22:48:41.076Z,100377.25
2017-10-17T22:51:11.137Z,100381.58
2017-10-17T22:53:40.385Z,100378.71
2017-10-17T22:56:09.573Z,100378.31
2017-10-17T22:58:38.929Z,100386.24
2017-10-17T23:01:08.121Z,100383.91
2017-10-17T23:03:37.377Z,100382.06
2017-10-17T23:06:06.624Z,100374.25
2017-10-17T23:08:35.875Z,100371.07
2017-10-17T23:11:05.094Z,100367.14
2017-10-17T23:13:35.090Z,100366.88
2017-10-17T23:16:04.292Z,100361.95
2017-10-17T23:32:20.772Z,100336.83
2017-10-17T23:34:50.003Z,100337.45
2017-10-17T23:37:19.208Z,100329.57
2017-10-17T23:39:48.466Z,100329.98
2017-10-17T23:42:17.663Z,100325.15
2017-10-17T23:44:46.877Z,100328.41
2017-10-17T23:47:16.879Z,100327.05
2017-10-17T23:49:46.167Z,100321.58
2017-10-17T23:52:15.580Z,100333.58
2017-10-17T23:54:44.840Z,100327.70
2017-10-17T23:57:14.052Z,100326.69
2017-10-17T23:59:43.283Z,100325.25
